Time;durP1;ratioP1;P1;durP2;ratioP2;P2;SDS_P1;SDS_P2;PMS_P1;PMS_P2;Temp;Humidity;BMP_temperature;BMP_pressure;BME280_temperature;BME280_humidity;BME280_pressure;Samples;Min_cycle;Max_cycle;Signal;HPM_P1;HPM_P2
2022/07/29 00:00:37;;;;;;;;;;;;;;;22.83;54.86;99633.75;1085346;54;19946;-76
2022/07/29 00:01:38;;;;;;;;;;;;;;;22.85;54.13;99626.16;1085801;54;20428;-75
2022/07/29 00:02:42;;;;;;;;;;;;;;;22.85;54.18;99628.88;1085697;54;19972;-74
2022/07/29 00:03:44;;;;;;;;;;;;;;;22.88;54.03;99636.59;1085321;54;19951;-74
2022/07/29 00:04:48;;;;;;;;;;;;;;;22.89;53.92;99628.19;1085780;54;19947;-74
2022/07/29 00:05:49;;;;;;;;;;;;;;;22.88;54.05;99626.53;1085993;39;20435;-75
2022/07/29 00:06:52;;;;;;;;;;;;;;;22.89;54.14;99624.63;1085814;54;20444;-75
2022/07/29 00:07:54;;;;;;;;;;;;;;;22.87;54.11;99630.31;1085727;54;19950;-76
2022/07/29 00:08:58;;;;;;;;;;;;;;;22.87;54.85;99629.50;1085488;54;20650;-75
2022/07/29 00:10:05;;;;;;;;;;;;;;;22.90;53.76;99629.03;1086426;54;19953;-74
2022/07/29 00:11:06;;;;;;;;;;;;;;;22.83;54.86;99625.56;1086868;54;19942;-76
2022/07/29 00:12:10;;;;;;;;;;;;;;;22.82;54.88;99627.47;1085576;54;19962;-76
2022/07/29 00:13:11;;;;;;;;;;;;;;;22.80;55.03;99624.16;1085786;54;19951;-75
2022/07/29 00:14:15;;;;;;;;;;;;;;;22.82;54.53;99622.03;1085908;54;19958;-73
2022/07/29 00:15:16;;;;;;;;;;;;;;;22.83;54.30;99617.38;1086442;54;19951;-75
2022/07/29 00:16:20;;;;;;;;;;;;;;;22.78;55.00;99620.81;1086788;39;20356;-75
2022/07/29 00:17:21;;;;;;;;;;;;;;;22.74;55.42;99627.81;1085855;54;19947;-76
2022/07/29 00:18:25;;;;;;;;;;;;;;;22.77;54.80;99621.06;1086625;39;20344;-74
2022/07/29 00:19:26;;;;;;;;;;;;;;;22.77;54.42;99619.16;1085512;54;19950;-74
2022/07/29 00:20:30;;;;;;;;;;;;;;;22.71;55.59;99614.66;1085617;54;19947;-74
2022/07/29 00:21:31;;;;;;;;;;;;;;;22.69;55.68;99616.78;1086884;54;19951;-73
2022/07/29 00:22:34;;;;;;;;;;;;;;;22.61;55.93;99619.88;1086517;54;20742;-73
2022/07/29 00:28:34;;;;;;;;;;;;;;;22.36;57.24;99601.81;1086475;54;19950;-79
2022/07/29 00:29:35;;;;;;;;;;;;;;;22.40;56.41;99603.00;1087855;54;20570;-78
2022/07/29 00:30:42;;;;;;;;;;;;;;;22.44;56.17;99598.75;1088070;54;19950;-78
2022/07/29 00:31:43;;;;;;;;;;;;;;;22.44;56.01;99594.13;1088130;54;19946;-79
2022/07/29 00:54:36;;;;;;;;;;;;;;;22.41;56.10;99577.44;1087143;54;19939;-77
2022/07/29 00:55:37;;;;;;;;;;;;;;;22.41;56.46;99582.88;1086823;54;19950;-77
2022/07/29 00:56:43;;;;;;;;;;;;;;;22.42;56.07;99574.50;1086827;54;19950;-77
2022/07/29 00:57:45;;;;;;;;;;;;;;;22.44;55.99;99577.78;1087073;54;19946;-77
2022/07/29 00:58:53;;;;;;;;;;;;;;;22.45;56.01;99584.09;1086803;54;19947;-77
2022/07/29 00:59:54;;;;;;;;;;;;;;;22.43;56.39;99580.75;1086965;54;19939;-78
2022/07/29 01:01:13;;;;;;;;;;;;;;;22.44;56.37;99574.25;1086811;54;19981;-77
2022/07/29 01:02:14;;;;;;;;;;;;;;;22.34;57.17;99576.69;1087317;54;19934;-77
2022/07/29 01:09:07;;;;;;;;;;;;;;;22.24;56.76;99571.84;1085627;54;21509;-78
2022/07/29 01:10:13;;;;;;;;;;;;;;;22.25;57.10;99570.75;1087879;39;20498;-79
2022/07/29 01:11:18;;;;;;;;;;;;;;;22.28;56.44;99568.41;1086458;54;19943;-78
2022/07/29 01:12:22;;;;;;;;;;;;;;;22.25;57.29;99568.88;1086438;54;19954;-78
2022/07/29 01:13:26;;;;;;;;;;;;;;;22.24;56.93;99566.41;1086679;54;19939;-77
2022/07/29 01:14:28;;;;;;;;;;;;;;;22.20;57.31;99565.19;1086443;54;19969;-78
2022/07/29 01:15:31;;;;;;;;;;;;;;;22.25;56.51;99571.59;1086081;54;19999;-78
2022/07/29 01:16:39;;;;;;;;;;;;;;;22.24;56.80;99569.94;1086304;54;19953;-78
2022/07/29 01:17:45;;;;;;;;;;;;;;;22.26;56.61;99570.53;1086048;54;19939;-78
2022/07/29 01:18:47;;;;;;;;;;;;;;;22.29;56.67;99564.59;1085998;54;19974;-79
2022/07/29 01:20:01;;;;;;;;;;;;;;;22.26;57.13;99564.25;1086658;54;19938;-79
2022/07/29 01:21:20;;;;;;;;;;;;;;;22.23;57.10;99572.91;1086325;54;19991;-78
2022/07/29 02:07:31;;;;;;;;;;;;;;;21.66;58.26;99563.25;1085661;54;19977;-78
2022/07/29 02:08:38;;;;;;;;;;;;;;;21.69;57.92;99564.66;1087355;54;19939;-78
2022/07/29 02:09:44;;;;;;;;;;;;;;;21.59;58.50;99568.75;1086609;54;20465;-79
2022/07/29 02:10:45;;;;;;;;;;;;;;;21.61;58.29;99563.09;1087094;54;19942;-79
2022/07/29 02:11:51;;;;;;;;;;;;;;;21.57;58.34;99565.41;1087671;54;20516;-78
2022/07/29 02:12:53;;;;;;;;;;;;;;;21.56;58.44;99563.75;1087894;54;19946;-79
2022/07/29 02:13:59;;;;;;;;;;;;;;;21.55;58.15;99564.78;1088043;54;19923;-81
2022/07/29 02:15:01;;;;;;;;;;;;;;;21.53;58.27;99561.50;1087487;54;19947;-79
2022/07/29 02:16:11;;;;;;;;;;;;;;;21.56;58.21;99566.47;1087450;54;20022;-77
2022/07/29 02:17:13;;;;;;;;;;;;;;;21.51;58.22;99571.78;1087971;54;19919;-79
2022/07/29 02:18:25;;;;;;;;;;;;;;;21.53;58.09;99572.38;1087771;54;19922;-80
2022/07/29 02:19:27;;;;;;;;;;;;;;;21.58;57.72;99558.09;1087789;54;19949;-78
2022/07/29 02:20:42;;;;;;;;;;;;;;;21.62;57.80;99565.59;1087542;54;19950;-78
2022/07/29 02:21:44;;;;;;;;;;;;;;;21.65;57.60;99554.25;1087412;54;19978;-79
2022/07/29 02:30:16;;;;;;;;;;;;;;;21.77;56.88;99553.47;1087841;54;20421;-81
2022/07/29 02:31:18;;;;;;;;;;;;;;;21.76;57.32;99540.91;1088594;54;19939;-81
2022/07/29 02:32:24;;;;;;;;;;;;;;;21.74;57.02;99543.88;1088682;54;19933;-80
2022/07/29 02:41:38;;;;;;;;;;;;;;;21.72;57.12;99548.72;1085836;54;19962;-78
2022/07/29 02:42:43;;;;;;;;;;;;;;;21.74;56.60;99549.31;1086935;54;20035;-79
2022/07/29 02:43:47;;;;;;;;;;;;;;;21.75;57.03;99555.56;1086576;54;19949;-78
2022/07/29 02:44:51;;;;;;;;;;;;;;;21.77;56.82;99545.31;1087055;54;19939;-78
2022/07/29 02:45:56;;;;;;;;;;;;;;;21.79;56.61;99554.06;1087993;39;20397;-81
2022/07/29 02:47:04;;;;;;;;;;;;;;;21.75;57.19;99558.28;1087971;54;20006;-78
2022/07/29 02:48:09;;;;;;;;;;;;;;;21.70;56.98;99552.72;1087919;54;19935;-80
2022/07/29 02:49:16;;;;;;;;;;;;;;;21.67;57.18;99551.31;1087978;47;19950;-79
2022/07/29 02:50:26;;;;;;;;;;;;;;;21.63;56.95;99556.34;1087667;54;19934;-80
2022/07/29 02:51:34;;;;;;;;;;;;;;;21.65;56.89;99547.97;1087751;54;19962;-81
2022/07/29 02:52:42;;;;;;;;;;;;;;;21.68;56.79;99561.09;1087692;54;19951;-81
2022/07/29 02:53:44;;;;;;;;;;;;;;;21.72;56.63;99558.78;1087500;54;19974;-79
2022/07/29 02:54:52;;;;;;;;;;;;;;;21.74;56.90;99553.91;1087892;47;20217;-80
2022/07/29 02:55:55;;;;;;;;;;;;;;;21.69;56.93;99551.06;1087653;54;19943;-80
2022/07/29 02:57:01;;;;;;;;;;;;;;;21.59;57.50;99557.88;1087341;54;19946;-80
2022/07/29 02:58:06;;;;;;;;;;;;;;;21.55;57.43;99559.34;1086794;54;19942;-79
2022/07/29 02:59:10;;;;;;;;;;;;;;;21.51;57.78;99552.72;1087086;54;19967;-80
2022/07/29 03:00:14;;;;;;;;;;;;;;;21.48;58.13;99553.19;1087428;54;19970;-78
2022/07/29 03:01:20;;;;;;;;;;;;;;;21.47;57.97;99559.69;1088360;47;19927;-79
2022/07/29 03:02:24;;;;;;;;;;;;;;;21.47;57.89;99559.69;1087763;54;20618;-80
2022/07/29 03:03:28;;;;;;;;;;;;;;;21.43;58.25;99558.50;1087542;54;19923;-79
2022/07/29 03:04:34;;;;;;;;;;;;;;;21.42;58.13;99562.25;1089355;39;20388;-80
2022/07/29 03:05:35;;;;;;;;;;;;;;;21.33;58.46;99568.00;1087390;54;20437;-80
2022/07/29 03:06:39;;;;;;;;;;;;;;;21.29;58.56;99565.97;1087307;54;19965;-80
2022/07/29 03:07:45;;;;;;;;;;;;;;;21.23;58.77;99565.00;1087402;54;19953;-80
2022/07/29 03:08:47;;;;;;;;;;;;;;;21.13;58.84;99562.78;1087226;54;19942;-80
2022/07/29 03:09:54;;;;;;;;;;;;;;;21.18;58.58;99562.09;1087331;54;19950;-78
2022/07/29 03:10:56;;;;;;;;;;;;;;;21.22;58.59;99566.03;1087981;54;19946;-80
2022/07/29 03:12:00;;;;;;;;;;;;;;;21.25;58.63;99559.31;1088583;47;19965;-80
2022/07/29 03:13:01;;;;;;;;;;;;;;;21.25;58.60;99571.03;1088034;54;19943;-80
2022/07/29 03:14:07;;;;;;;;;;;;;;;21.26;58.43;99561.81;1090088;47;19931;-81
2022/07/29 03:15:09;;;;;;;;;;;;;;;21.26;58.04;99567.22;1087949;54;19949;-79
2022/07/29 03:16:15;;;;;;;;;;;;;;;21.23;58.36;99559.56;1087939;54;19927;-78
2022/07/29 03:17:19;;;;;;;;;;;;;;;21.24;58.34;99558.50;1087995;47;19946;-79
2022/07/29 03:18:24;;;;;;;;;;;;;;;21.22;58.22;99555.19;1089570;47;19949;-80
2022/07/29 03:19:26;;;;;;;;;;;;;;;21.25;58.29;99551.16;1087793;54;19946;-80
2022/07/29 03:20:29;;;;;;;;;;;;;;;21.26;58.28;99564.53;1087416;54;19953;-80
2022/07/29 03:21:30;;;;;;;;;;;;;;;21.26;58.27;99560.97;1087303;54;19930;-80
2022/07/29 03:22:35;;;;;;;;;;;;;;;21.24;58.10;99563.94;1087450;54;19954;-80
2022/07/29 03:23:36;;;;;;;;;;;;;;;21.26;58.18;99560.97;1087321;54;19946;-81
2022/07/29 03:24:40;;;;;;;;;;;;;;;21.25;58.13;99567.47;1088656;47;19953;-81
2022/07/29 03:25:42;;;;;;;;;;;;;;;21.26;58.03;99560.97;1087751;39;20444;-79
2022/07/29 03:26:46;;;;;;;;;;;;;;;21.23;58.09;99562.28;1087438;54;19951;-81
2022/07/29 03:27:48;;;;;;;;;;;;;;;21.25;57.83;99559.31;1087579;54;19950;-79
2022/07/29 03:28:51;;;;;;;;;;;;;;;21.25;57.87;99557.44;1087323;54;19966;-80
2022/07/29 03:29:53;;;;;;;;;;;;;;;21.26;57.83;99556.38;1087409;54;19954;-80
2022/07/29 03:30:56;;;;;;;;;;;;;;;21.24;58.29;99558.50;1087387;54;19958;-79
2022/07/29 03:31:59;;;;;;;;;;;;;;;21.24;58.22;99558.50;1089253;39;20617;-80
2022/07/29 03:33:05;;;;;;;;;;;;;;;21.27;57.78;99558.03;1086959;54;19973;-79
2022/07/29 03:34:06;;;;;;;;;;;;;;;21.30;57.78;99562.19;1086721;54;19958;-79
2022/07/29 03:35:10;;;;;;;;;;;;;;;21.33;57.54;99559.84;1087200;39;20365;-80
2022/07/29 03:36:14;;;;;;;;;;;;;;;21.32;57.72;99558.19;1087312;54;19947;-80
2022/07/29 03:37:15;;;;;;;;;;;;;;;21.34;57.81;99558.81;1087177;54;19946;-79
2022/07/29 03:38:19;;;;;;;;;;;;;;;21.34;57.43;99556.09;1087172;54;20007;-79
2022/07/29 03:39:21;;;;;;;;;;;;;;;21.33;57.83;99559.00;1086901;54;19950;-79
2022/07/29 03:40:28;;;;;;;;;;;;;;;21.30;57.89;99557.59;1086879;54;19947;-78
2022/07/29 03:41:30;;;;;;;;;;;;;;;21.24;58.11;99558.50;1086874;54;19946;-80
2022/07/29 03:42:35;;;;;;;;;;;;;;;21.14;58.58;99553.59;1086471;54;19939;-78
2022/07/29 03:43:38;;;;;;;;;;;;;;;21.15;58.46;99562.59;1086879;54;20690;-80
2022/07/29 03:44:44;;;;;;;;;;;;;;;21.17;58.03;99563.16;1087278;54;19994;-79
2022/07/29 03:45:47;;;;;;;;;;;;;;;21.16;58.12;99564.25;1087192;54;19947;-79
2022/07/29 03:46:54;;;;;;;;;;;;;;;21.13;58.23;99570.13;1087356;54;19953;-79
2022/07/29 03:47:59;;;;;;;;;;;;;;;21.17;57.87;99563.16;1087361;54;19950;-80
2022/07/29 03:49:07;;;;;;;;;;;;;;;21.18;57.97;99557.53;1087694;54;20479;-80
2022/07/29 03:50:11;;;;;;;;;;;;;;;21.21;57.69;99561.66;1087482;54;19966;-80
2022/07/29 03:51:15;;;;;;;;;;;;;;;20.99;60.04;99572.16;1087282;54;19957;-79
2022/07/29 03:52:16;;;;;;;;;;;;;;;20.75;62.02;99560.28;1087555;54;19957;-79
2022/07/29 03:53:20;;;;;;;;;;;;;;;20.68;62.35;99569.28;1089723;47;19930;-80
2022/07/29 03:54:22;;;;;;;;;;;;;;;20.60;62.72;99576.88;1088267;46;19946;-80
2022/07/29 03:55:26;;;;;;;;;;;;;;;20.57;63.07;99575.44;1092350;39;20399;-80
2022/07/29 03:56:27;;;;;;;;;;;;;;;20.58;62.83;99571.69;1088060;54;19947;-81
2022/07/29 03:57:33;;;;;;;;;;;;;;;20.58;62.99;99568.97;1087875;54;20732;-79
2022/07/29 03:58:34;;;;;;;;;;;;;;;20.70;62.15;99566.34;1088071;54;19939;-79
2022/07/29 03:59:40;;;;;;;;;;;;;;;20.77;61.68;99553.56;1087824;54;19942;-80
2022/07/29 04:00:42;;;;;;;;;;;;;;;20.82;61.61;99564.59;1088030;54;19981;-81
2022/07/29 04:01:46;;;;;;;;;;;;;;;20.85;61.32;99561.41;1088048;54;19950;-80
2022/07/29 04:02:48;;;;;;;;;;;;;;;20.82;62.08;99561.88;1088005;54;19946;-79
2022/07/29 04:03:52;;;;;;;;;;;;;;;20.72;62.45;99556.91;1087691;54;19947;-80
2022/07/29 04:04:56;;;;;;;;;;;;;;;20.65;63.22;99561.56;1087982;54;19974;-79
2022/07/29 04:06:05;;;;;;;;;;;;;;;20.62;63.35;99550.34;1088036;54;19948;-78
2022/07/29 04:07:06;;;;;;;;;;;;;;;20.53;63.32;99563.34;1087949;54;19933;-79
2022/07/29 04:08:10;;;;;;;;;;;;;;;20.48;63.83;99564.03;1087659;54;19947;-79
2022/07/29 04:09:11;;;;;;;;;;;;;;;20.47;63.71;99556.09;1087396;54;19962;-78
2022/07/29 04:10:15;;;;;;;;;;;;;;;20.50;63.68;99561.09;1087091;54;19946;-79
2022/07/29 04:11:16;;;;;;;;;;;;;;;20.50;63.78;99559.19;1087711;54;19935;-78
2022/07/29 04:12:20;;;;;;;;;;;;;;;20.58;63.13;99553.50;1088324;54;20010;-78
2022/07/29 04:13:22;;;;;;;;;;;;;;;20.57;63.24;99551.00;1087929;54;19970;-79
2022/07/29 04:14:25;;;;;;;;;;;;;;;20.57;63.44;99556.44;1088057;54;19951;-78
2022/07/29 04:15:28;;;;;;;;;;;;;;;20.48;64.04;99565.91;1088167;54;20456;-80
2022/07/29 04:16:32;;;;;;;;;;;;;;;20.42;64.18;99563.00;1088315;54;19966;-81
2022/07/29 04:17:33;;;;;;;;;;;;;;;20.41;64.19;99564.06;1088189;54;20587;-81
2022/07/29 04:18:37;;;;;;;;;;;;;;;20.43;64.27;99563.88;1087857;54;19946;-80
2022/07/29 04:19:38;;;;;;;;;;;;;;;20.47;63.90;99564.25;1088132;54;19950;-81
2022/07/29 04:20:52;;;;;;;;;;;;;;;20.57;63.47;99559.97;1088450;39;20204;-80
2022/07/29 04:21:53;;;;;;;;;;;;;;;20.59;63.87;99559.75;1088065;54;19942;-78
2022/07/29 04:22:56;;;;;;;;;;;;;;;20.59;63.48;99570.63;1087997;54;19998;-78
2022/07/29 04:23:59;;;;;;;;;;;;;;;20.58;63.70;99577.09;1087843;54;19963;-78
2022/07/29 04:25:02;;;;;;;;;;;;;;;20.53;63.76;99571.50;1088007;54;19953;-78
2022/07/29 04:26:04;;;;;;;;;;;;;;;20.47;64.25;99573.22;1087993;54;19943;-78
2022/07/29 04:27:07;;;;;;;;;;;;;;;20.47;64.25;99577.81;1087540;54;19937;-78
2022/07/29 04:28:09;;;;;;;;;;;;;;;20.46;64.82;99576.16;1087664;54;19966;-79
2022/07/29 04:29:14;;;;;;;;;;;;;;;20.44;64.76;99575.53;1088123;54;19986;-78
2022/07/29 04:30:15;;;;;;;;;;;;;;;20.39;65.32;99579.75;1088026;54;19946;-78
2022/07/29 04:31:19;;;;;;;;;;;;;;;20.34;65.53;99576.88;1088161;54;19950;-79
2022/07/29 04:32:20;;;;;;;;;;;;;;;20.32;65.48;99583.56;1088214;54;19954;-78
2022/07/29 04:33:24;;;;;;;;;;;;;;;20.30;65.72;99581.09;1089062;47;19986;-78
2022/07/29 04:34:25;;;;;;;;;;;;;;;20.29;65.59;99581.28;1088179;54;19939;-79
2022/07/29 04:35:29;;;;;;;;;;;;;;;20.22;65.96;99579.47;1088268;54;19942;-78
2022/07/29 04:36:35;;;;;;;;;;;;;;;20.16;66.27;99577.63;1088402;54;19946;-79
2022/07/29 04:37:37;;;;;;;;;;;;;;;20.15;66.45;99581.41;1088281;54;19942;-80
2022/07/29 04:38:40;;;;;;;;;;;;;;;20.13;66.63;99577.22;1087734;54;19950;-79
2022/07/29 04:39:42;;;;;;;;;;;;;;;20.06;66.74;99578.09;1087749;54;19962;-80
2022/07/29 04:40:45;;;;;;;;;;;;;;;20.03;67.14;99575.00;1087900;54;19952;-79
2022/07/29 04:41:47;;;;;;;;;;;;;;;19.99;67.33;99577.31;1087875;54;19946;-78
2022/07/29 04:42:50;;;;;;;;;;;;;;;19.99;67.58;99573.75;1087610;54;20071;-80
2022/07/29 04:43:54;;;;;;;;;;;;;;;20.02;67.14;99574.19;1088427;39;20519;-79
2022/07/29 04:44:55;;;;;;;;;;;;;;;20.02;66.94;99574.19;1087441;54;19957;-79
2022/07/29 04:45:59;;;;;;;;;;;;;;;20.03;67.27;99569.56;1089386;39;20283;-79
2022/07/29 04:47:01;;;;;;;;;;;;;;;20.07;66.99;99570.81;1088070;54;19950;-79
2022/07/29 04:48:04;;;;;;;;;;;;;;;20.11;66.94;99572.03;1088368;54;19935;-79
2022/07/29 04:49:08;;;;;;;;;;;;;;;20.17;66.62;99570.31;1088233;54;19946;-79
2022/07/29 04:50:09;;;;;;;;;;;;;;;20.20;66.60;99569.88;1088062;54;19949;-78
2022/07/29 04:51:13;;;;;;;;;;;;;;;20.16;66.62;99569.50;1088247;54;20023;-80
2022/07/29 04:52:17;;;;;;;;;;;;;;;20.13;66.73;99571.78;1088420;54;19958;-79
2022/07/29 04:53:25;;;;;;;;;;;;;;;20.12;66.72;99567.44;1088371;54;19951;-79
2022/07/29 04:54:26;;;;;;;;;;;;;;;20.10;67.02;99562.22;1088453;54;19931;-79
2022/07/29 04:55:29;;;;;;;;;;;;;;;20.10;66.74;99565.78;1088281;54;19939;-78
2022/07/29 04:56:31;;;;;;;;;;;;;;;20.12;67.00;99564.72;1088344;54;19939;-78
2022/07/29 04:57:34;;;;;;;;;;;;;;;20.11;66.77;99569.31;1089385;46;19927;-79
2022/07/29 04:58:38;;;;;;;;;;;;;;;20.18;66.73;99569.28;1088229;54;19930;-78
2022/07/29 04:59:39;;;;;;;;;;;;;;;20.16;66.68;99568.66;1088379;54;19935;-79
2022/07/29 05:00:43;;;;;;;;;;;;;;;20.21;66.49;99566.94;1088180;54;19946;-78
2022/07/29 05:01:47;;;;;;;;;;;;;;;20.25;66.65;99567.34;1087793;54;19942;-79
2022/07/29 05:02:48;;;;;;;;;;;;;;;20.30;66.52;99570.22;1087375;54;19946;-78
2022/07/29 05:03:52;;;;;;;;;;;;;;;20.25;67.00;99567.34;1087682;54;19962;-78
2022/07/29 05:04:53;;;;;;;;;;;;;;;20.23;67.39;99569.44;1088163;54;19942;-79
2022/07/29 05:05:56;;;;;;;;;;;;;;;20.26;67.26;99569.00;1088047;54;19942;-79
2022/07/29 05:06:57;;;;;;;;;;;;;;;20.25;67.08;99567.34;1088051;54;20472;-78
2022/07/29 05:08:04;;;;;;;;;;;;;;;20.21;67.55;99572.38;1088297;54;19942;-79
2022/07/29 05:09:05;;;;;;;;;;;;;;;20.20;67.49;99570.72;1088250;54;19951;-78
2022/07/29 05:10:09;;;;;;;;;;;;;;;20.23;67.05;99570.28;1089320;46;19967;-80
2022/07/29 05:11:10;;;;;;;;;;;;;;;20.25;67.08;99573.59;1089418;46;19942;-79
2022/07/29 05:12:14;;;;;;;;;;;;;;;20.25;67.00;99572.75;1088339;54;19953;-79
2022/07/29 05:13:15;;;;;;;;;;;;;;;20.28;66.74;99580.47;1088204;54;19947;-80
2022/07/29 05:14:19;;;;;;;;;;;;;;;20.26;66.97;99574.44;1088438;46;19942;-78
2022/07/29 05:15:20;;;;;;;;;;;;;;;20.26;66.74;99569.00;1088227;54;19938;-79
2022/07/29 05:16:24;;;;;;;;;;;;;;;20.29;66.76;99581.28;1088297;54;19966;-79
2022/07/29 05:17:28;;;;;;;;;;;;;;;20.32;66.26;99573.53;1088266;54;19999;-80
2022/07/29 05:18:29;;;;;;;;;;;;;;;20.29;66.46;99582.13;1087914;54;19949;-78
2022/07/29 05:19:33;;;;;;;;;;;;;;;20.26;66.91;99580.66;1087774;54;19966;-79
2022/07/29 05:20:34;;;;;;;;;;;;;;;20.31;66.69;99577.28;1087796;54;19957;-79
2022/07/29 05:21:38;;;;;;;;;;;;;;;20.32;66.75;99584.38;1087770;54;20006;-79
2022/07/29 05:22:39;;;;;;;;;;;;;;;20.42;66.19;99575.78;1090319;46;19999;-79
2022/07/29 05:23:45;;;;;;;;;;;;;;;20.44;66.05;99584.53;1090375;46;19994;-78
2022/07/29 05:24:47;;;;;;;;;;;;;;;20.51;65.88;99576.31;1087772;54;19946;-79
2022/07/29 05:25:50;;;;;;;;;;;;;;;20.61;65.51;99576.63;1087890;54;19990;-80
2022/07/29 05:26:51;;;;;;;;;;;;;;;20.68;65.42;99571.16;1087863;54;19942;-79
2022/07/29 05:27:55;;;;;;;;;;;;;;;20.69;64.99;99589.13;1087878;54;19934;-80
2022/07/29 05:28:56;;;;;;;;;;;;;;;20.79;64.88;99584.03;1088533;54;19934;-79
2022/07/29 05:30:00;;;;;;;;;;;;;;;20.84;64.87;99580.66;1091703;46;19958;-79
2022/07/29 05:31:08;;;;;;;;;;;;;;;20.88;64.44;99582.69;1088332;54;19950;-79
2022/07/29 05:32:12;;;;;;;;;;;;;;;20.93;64.28;99581.19;1088428;54;19942;-78
2022/07/29 05:33:13;;;;;;;;;;;;;;;20.93;64.43;99590.19;1088718;46;19946;-78
2022/07/29 05:34:17;;;;;;;;;;;;;;;20.93;63.97;99581.19;1091796;39;20353;-80
2022/07/29 05:35:18;;;;;;;;;;;;;;;20.89;64.00;99583.53;1087838;54;19954;-79
2022/07/29 05:36:22;;;;;;;;;;;;;;;20.82;64.27;99589.03;1089013;46;19950;-79
2022/07/29 05:37:35;;;;;;;;;;;;;;;20.79;64.68;99585.91;1087642;54;19951;-79
2022/07/29 05:38:36;;;;;;;;;;;;;;;20.60;65.22;99591.28;1087410;54;19947;-80
2022/07/29 05:39:42;;;;;;;;;;;;;;;20.49;65.38;99600.16;1087028;54;19949;-79
2022/07/29 05:40:46;;;;;;;;;;;;;;;20.39;65.71;99589.78;1087856;54;19947;-79
2022/07/29 05:41:47;;;;;;;;;;;;;;;20.37;65.60;99594.59;1087908;54;19951;-79
2022/07/29 05:42:51;;;;;;;;;;;;;;;20.31;65.64;99593.56;1087539;54;19943;-79
2022/07/29 05:43:52;;;;;;;;;;;;;;;20.29;65.64;99594.84;1087494;54;19951;-78
2022/07/29 05:44:56;;;;;;;;;;;;;;;20.34;65.41;99587.72;1087959;54;20314;-79
2022/07/29 05:45:57;;;;;;;;;;;;;;;20.31;65.50;99590.88;1088243;46;19927;-80
2022/07/29 05:47:01;;;;;;;;;;;;;;;20.38;65.24;99591.66;1089422;46;19946;-80
2022/07/29 05:48:02;;;;;;;;;;;;;;;20.37;65.01;99595.44;1088001;54;19943;-78
2022/07/29 05:49:07;;;;;;;;;;;;;;;20.36;64.90;99599.19;1088100;54;19965;-81
2022/07/29 05:50:11;;;;;;;;;;;;;;;20.31;65.03;99599.00;1087909;54;19950;-80
2022/07/29 05:51:12;;;;;;;;;;;;;;;20.31;64.75;99601.72;1088137;54;19951;-79
2022/07/29 05:52:17;;;;;;;;;;;;;;;20.31;64.80;99599.00;1087951;54;19938;-80
2022/07/29 05:53:18;;;;;;;;;;;;;;;20.31;64.73;99604.44;1088219;46;19943;-80
2022/07/29 05:54:22;;;;;;;;;;;;;;;20.33;64.52;99601.53;1088042;54;19950;-80
2022/07/29 05:55:26;;;;;;;;;;;;;;;20.36;64.62;99604.63;1087981;54;19935;-80
2022/07/29 05:56:30;;;;;;;;;;;;;;;20.34;64.51;99608.63;1089504;46;19942;-79
2022/07/29 05:57:31;;;;;;;;;;;;;;;20.31;64.68;99604.44;1087493;54;19946;-78
2022/07/29 05:58:36;;;;;;;;;;;;;;;20.41;64.61;99602.06;1088274;54;19953;-79
2022/07/29 05:59:37;;;;;;;;;;;;;;;20.48;64.39;99606.63;1088033;54;19987;-79
2022/07/29 06:00:41;;;;;;;;;;;;;;;20.48;64.24;99614.78;1087794;54;19950;-78
2022/07/29 06:01:42;;;;;;;;;;;;;;;20.48;64.47;99615.59;1088293;47;19978;-79
2022/07/29 06:02:46;;;;;;;;;;;;;;;20.51;64.01;99607.03;1087941;54;19954;-79
2022/07/29 06:03:47;;;;;;;;;;;;;;;20.62;63.92;99616.31;1088101;54;19946;-79
2022/07/29 06:04:51;;;;;;;;;;;;;;;20.62;63.69;99613.59;1088240;54;19934;-80
2022/07/29 06:05:52;;;;;;;;;;;;;;;20.70;63.35;99601.66;1088296;54;19957;-79
2022/07/29 06:06:56;;;;;;;;;;;;;;;20.72;63.52;99613.13;1089320;39;20522;-78
2022/07/29 06:07:57;;;;;;;;;;;;;;;20.78;63.48;99614.16;1087908;54;19951;-79
2022/07/29 06:09:01;;;;;;;;;;;;;;;20.82;63.30;99612.63;1088032;54;19938;-78
2022/07/29 06:10:02;;;;;;;;;;;;;;;20.82;63.32;99605.34;1087962;54;19934;-78
2022/07/29 06:11:08;;;;;;;;;;;;;;;20.91;63.02;99608.56;1087936;54;19951;-79
2022/07/29 06:12:10;;;;;;;;;;;;;;;20.94;62.77;99610.84;1087891;39;20337;-78
2022/07/29 06:13:15;;;;;;;;;;;;;;;21.00;62.93;99614.56;1091282;46;19958;-79
2022/07/29 06:14:16;;;;;;;;;;;;;;;21.04;62.47;99608.47;1087283;54;19931;-79
2022/07/29 06:15:20;;;;;;;;;;;;;;;21.11;62.36;99613.81;1087565;54;19942;-79
2022/07/29 06:16:21;;;;;;;;;;;;;;;21.13;62.30;99616.31;1087610;54;20003;-79
2022/07/29 06:17:25;;;;;;;;;;;;;;;21.15;62.43;99614.22;1092645;39;20716;-79
2022/07/29 06:18:26;;;;;;;;;;;;;;;21.17;62.13;99607.50;1087791;54;19939;-80
2022/07/29 06:19:30;;;;;;;;;;;;;;;21.15;62.10;99611.50;1093146;31;20489;-79
2022/07/29 06:20:34;;;;;;;;;;;;;;;21.14;62.18;99609.84;1087704;54;20480;-80
2022/07/29 06:21:35;;;;;;;;;;;;;;;21.16;62.50;99613.97;1088297;54;19957;-78
2022/07/29 06:22:39;;;;;;;;;;;;;;;21.14;62.53;99613.38;1088633;46;19933;-79
2022/07/29 06:23:40;;;;;;;;;;;;;;;21.24;62.32;99618.31;1087938;54;19926;-80
2022/07/29 06:24:44;;;;;;;;;;;;;;;21.29;61.73;99618.44;1087792;54;19943;-79
2022/07/29 06:25:45;;;;;;;;;;;;;;;21.44;61.83;99617.25;1087460;54;19950;-79
2022/07/29 06:26:51;;;;;;;;;;;;;;;21.55;61.34;99613.75;1087312;54;19962;-80
2022/07/29 06:27:52;;;;;;;;;;;;;;;21.64;60.95;99617.03;1087869;54;19927;-79
2022/07/29 06:28:56;;;;;;;;;;;;;;;21.58;61.04;99624.22;1087926;54;19942;-80
2022/07/29 06:29:57;;;;;;;;;;;;;;;21.69;61.12;99621.78;1087679;54;19946;-80
2022/07/29 06:31:01;;;;;;;;;;;;;;;21.71;60.87;99622.38;1086950;54;19957;-80
2022/07/29 06:32:03;;;;;;;;;;;;;;;21.76;60.79;99622.53;1087417;46;20603;-80
2022/07/29 06:33:06;;;;;;;;;;;;;;;21.66;61.01;99615.72;1087358;54;19949;-79
2022/07/29 06:34:08;;;;;;;;;;;;;;;21.62;61.12;99625.44;1087850;54;20503;-79
2022/07/29 06:35:12;;;;;;;;;;;;;;;21.64;61.35;99626.00;1088451;46;20421;-79
2022/07/29 06:36:13;;;;;;;;;;;;;;;21.76;60.76;99622.53;1087483;54;19943;-80
2022/07/29 06:37:17;;;;;;;;;;;;;;;21.86;60.61;99630.16;1090107;39;20408;-80
2022/07/29 06:38:18;;;;;;;;;;;;;;;21.85;60.76;99623.88;1087500;54;19947;-79
2022/07/29 06:39:22;;;;;;;;;;;;;;;21.91;60.77;99628.41;1087147;54;19950;-78
2022/07/29 06:41:42;;;;;;;;;;;;;;;21.95;60.38;99634.22;1088097;47;19939;-79
2022/07/29 06:42:45;;;;;;;;;;;;;;;22.03;60.27;99623.00;1089462;47;19939;-79
2022/07/29 06:43:51;;;;;;;;;;;;;;;21.99;60.65;99627.25;1088441;54;19927;-78
2022/07/29 06:44:52;;;;;;;;;;;;;;;21.94;60.82;99622.50;1091993;46;19943;-77
2022/07/29 06:45:56;;;;;;;;;;;;;;;21.94;60.96;99627.94;1089153;46;19946;-79
2022/07/29 06:46:59;;;;;;;;;;;;;;;22.00;60.53;99626.19;1088285;54;19962;-78
2022/07/29 06:48:00;;;;;;;;;;;;;;;22.01;60.74;99630.56;1089429;46;19939;-79
2022/07/29 06:49:04;;;;;;;;;;;;;;;22.07;60.63;99632.34;1088342;54;19958;-78
2022/07/29 06:50:06;;;;;;;;;;;;;;;22.20;60.45;99631.31;1090403;46;19942;-79
2022/07/29 06:51:10;;;;;;;;;;;;;;;22.35;59.74;99632.81;1088165;54;19953;-80
2022/07/29 06:52:12;;;;;;;;;;;;;;;22.45;59.79;99627.66;1088685;47;19954;-78
2022/07/29 06:53:16;;;;;;;;;;;;;;;22.51;59.59;99626.72;1089560;47;19927;-79
2022/07/29 06:54:22;;;;;;;;;;;;;;;22.39;59.84;99631.25;1087521;54;19949;-79
2022/07/29 06:55:24;;;;;;;;;;;;;;;22.38;60.11;99626.91;1088432;47;19966;-79
2022/07/29 06:56:28;;;;;;;;;;;;;;;22.44;60.23;99640.44;1087003;54;19973;-79
2022/07/29 06:57:29;;;;;;;;;;;;;;;22.61;59.66;99634.31;1087517;54;19951;-79
2022/07/29 06:58:35;;;;;;;;;;;;;;;22.73;59.38;99635.16;1087136;54;19950;-79
2022/07/29 06:59:36;;;;;;;;;;;;;;;22.84;58.82;99638.97;1087246;54;20472;-79
2022/07/29 07:00:40;;;;;;;;;;;;;;;22.89;58.71;99630.91;1087357;54;19926;-78
2022/07/29 07:01:42;;;;;;;;;;;;;;;22.74;59.14;99636.81;1087580;54;19947;-79
2022/07/29 07:02:46;;;;;;;;;;;;;;;22.77;59.50;99640.97;1087454;54;19950;-80
2022/07/29 07:03:47;;;;;;;;;;;;;;;22.71;59.18;99636.47;1087294;54;20617;-79
2022/07/29 07:04:51;;;;;;;;;;;;;;;22.57;59.98;99633.97;1087281;54;19962;-79
2022/07/29 07:05:53;;;;;;;;;;;;;;;22.74;59.66;99633.28;1087452;54;19950;-79